createdAt,value
2022-12-31T00:00:38.441Z,99780.03
2022-12-31T00:04:40.016Z,99791.56
2022-12-31T00:08:42.600Z,99798.91
2022-12-31T00:12:44.216Z,99811.53
2022-12-31T00:16:45.832Z,99834.69
2022-12-31T00:20:47.386Z,99833.31
2022-12-31T00:24:48.950Z,99838.00
2022-12-31T00:28:51.680Z,99842.56
2022-12-31T00:32:53.271Z,99845.63
2022-12-31T00:36:54.977Z,99851.69
2022-12-31T00:40:56.485Z,99850.84
2022-12-31T00:44:58.070Z,99852.13
2022-12-31T00:48:59.617Z,99859.34
2022-12-31T00:53:01.405Z,99874.00
2022-12-31T00:57:04.339Z,99872.81
2022-12-31T01:01:13.516Z,99881.91
2022-12-31T01:05:15.150Z,99886.06
2022-12-31T01:09:17.745Z,99881.81
2022-12-31T01:13:19.368Z,99885.91
2022-12-31T01:17:21.053Z,99893.63
2022-12-31T01:21:22.654Z,99903.78
2022-12-31T01:25:24.138Z,99908.03
2022-12-31T01:29:25.821Z,99901.44
2022-12-31T01:33:27.437Z,99915.69
2022-12-31T01:37:28.922Z,99913.03
2022-12-31T01:41:37.132Z,99923.19
2022-12-31T01:45:41.547Z,99939.00
2022-12-31T01:49:52.520Z,99953.38
2022-12-31T01:53:55.015Z,99962.03
2022-12-31T01:58:01.079Z,99955.00
2022-12-31T02:02:03.639Z,99942.81
2022-12-31T02:06:13.472Z,99952.00
2022-12-31T02:10:15.228Z,99942.56
2022-12-31T02:14:25.869Z,99947.22
2022-12-31T02:18:39.496Z,99942.38
2022-12-31T02:22:59.217Z,99945.03
2022-12-31T02:27:12.130Z,99960.00
2022-12-31T02:31:21.775Z,99950.56
2022-12-31T02:35:26.751Z,99943.09
2022-12-31T02:39:29.291Z,99931.66
2022-12-31T02:43:30.907Z,99927.00
2022-12-31T02:48:13.878Z,99938.56
2022-12-31T02:52:38.816Z,99923.69
2022-12-31T02:56:49.554Z,99927.75
2022-12-31T03:01:16.660Z,99906.50
2022-12-31T03:05:22.802Z,99896.34
2022-12-31T03:09:24.206Z,99905.38
2022-12-31T03:13:26.132Z,99914.63
2022-12-31T03:17:27.669Z,99919.56
2022-12-31T03:21:52.390Z,99915.97
2022-12-31T03:25:56.369Z,99920.03
2022-12-31T03:29:57.866Z,99925.78
2022-12-31T03:33:59.332Z,99917.06
2022-12-31T03:38:01.925Z,99909.41
2022-12-31T03:42:03.924Z,99920.66
2022-12-31T03:46:05.716Z,99920.25
2022-12-31T03:50:08.912Z,99911.25
2022-12-31T03:54:10.441Z,99900.97
2022-12-31T03:58:11.862Z,99902.88
2022-12-31T04:02:13.641Z,99904.16
2022-12-31T04:06:15.563Z,99906.53
2022-12-31T04:10:17.936Z,99908.25
2022-12-31T04:14:19.462Z,99915.97
2022-12-31T04:18:20.982Z,99906.13
2022-12-31T04:22:22.672Z,99903.34
2022-12-31T04:26:24.368Z,99903.56
2022-12-31T04:30:25.843Z,99900.38
2022-12-31T04:34:27.936Z,99898.03
2022-12-31T04:38:32.237Z,99881.88
2022-12-31T04:42:34.944Z,99897.19
2022-12-31T04:46:36.439Z,99881.22
2022-12-31T04:50:38.073Z,99888.44
2022-12-31T04:54:39.565Z,99883.38
2022-12-31T04:58:41.275Z,99891.84
2022-12-31T05:02:42.903Z,99906.34
2022-12-31T05:06:44.602Z,99897.56
2022-12-31T05:10:49.045Z,99900.66
2022-12-31T05:14:50.592Z,99894.13
2022-12-31T05:18:52.090Z,99877.75
2022-12-31T05:22:54.002Z,99880.47
2022-12-31T05:26:55.538Z,99888.88
2022-12-31T05:30:57.075Z,99878.03
2022-12-31T05:34:59.876Z,99886.00
2022-12-31T05:39:01.860Z,99883.25
2022-12-31T05:43:03.392Z,99892.59
2022-12-31T05:47:04.981Z,99889.38
2022-12-31T05:51:06.514Z,99899.41
2022-12-31T05:55:08.831Z,99910.06
2022-12-31T05:59:10.345Z,99914.69
2022-12-31T06:03:12.092Z,99913.28
2022-12-31T06:07:13.790Z,99935.41
2022-12-31T06:11:15.298Z,99943.81
2022-12-31T06:15:17.751Z,99937.56
2022-12-31T06:19:19.354Z,99929.16
2022-12-31T06:23:20.842Z,99949.00
2022-12-31T06:27:22.413Z,99926.66
2022-12-31T06:31:23.988Z,99930.56
2022-12-31T06:35:25.661Z,99925.00
2022-12-31T06:39:27.568Z,99919.47
2022-12-31T06:43:29.042Z,99920.91
2022-12-31T06:47:30.777Z,99911.47
2022-12-31T06:51:32.552Z,99916.28
2022-12-31T06:55:34.418Z,99927.81
2022-12-31T06:59:37.651Z,99942.63
2022-12-31T07:04:00.205Z,99952.91
2022-12-31T07:08:17.140Z,99954.22
2022-12-31T07:12:30.709Z,99962.84
2022-12-31T07:16:46.141Z,99959.19
2022-12-31T07:20:48.143Z,99961.47
2022-12-31T07:24:49.984Z,99964.38
2022-12-31T07:29:11.858Z,99957.13
2022-12-31T07:33:18.433Z,99950.44
2022-12-31T07:37:48.424Z,99943.84
2022-12-31T07:42:01.626Z,99954.34
2022-12-31T07:46:23.512Z,99944.66
2022-12-31T07:50:25.395Z,99960.44
2022-12-31T07:54:27.198Z,99962.66
2022-12-31T07:58:40.536Z,99957.22
2022-12-31T08:03:14.353Z,99960.16
2022-12-31T08:07:32.989Z,99942.63
2022-12-31T08:11:40.770Z,99974.31
2022-12-31T08:15:42.516Z,99988.47
2022-12-31T08:19:45.717Z,99986.78
2022-12-31T08:24:07.562Z,99993.75
2022-12-31T08:28:22.799Z,99990.56
2022-12-31T08:32:34.458Z,99992.75
2022-12-31T08:36:48.036Z,99947.63
2022-12-31T08:41:08.479Z,99971.44
2022-12-31T08:45:10.372Z,99970.56
2022-12-31T08:49:12.632Z,99977.63
2022-12-31T08:53:14.557Z,99978.44
2022-12-31T08:57:23.528Z,99970.78
2022-12-31T09:01:30.877Z,99982.78
2022-12-31T09:06:02.342Z,99975.72
2022-12-31T09:10:30.198Z,99991.31
2022-12-31T09:14:46.930Z,100017.16
2022-12-31T09:18:48.520Z,100002.13
2022-12-31T09:22:50.993Z,100034.16
2022-12-31T09:27:23.860Z,100007.38
2022-12-31T09:31:40.297Z,100016.38
2022-12-31T09:35:49.690Z,100019.25
2022-12-31T09:39:53.697Z,100018.41
2022-12-31T09:44:20.014Z,100014.19
2022-12-31T09:48:40.240Z,100018.44
2022-12-31T09:53:24.572Z,100030.53
2022-12-31T09:57:41.187Z,100026.28
2022-12-31T10:01:56.817Z,100025.94
2022-12-31T10:06:04.454Z,100022.00
2022-12-31T10:10:09.735Z,100017.28
2022-12-31T10:14:47.806Z,100016.19
2022-12-31T10:19:04.798Z,100021.38
2022-12-31T10:23:22.841Z,100022.03
2022-12-31T10:27:51.760Z,100013.34
2022-12-31T10:31:53.199Z,100021.63
2022-12-31T10:36:25.739Z,100024.31
2022-12-31T10:41:11.031Z,100029.53
2022-12-31T10:45:41.214Z,100041.56
2022-12-31T10:50:12.706Z,100054.09
2022-12-31T10:54:23.542Z,100033.50
2022-12-31T10:58:55.782Z,100037.25
2022-12-31T11:03:29.319Z,100041.66
2022-12-31T11:07:50.053Z,100027.47
2022-12-31T11:12:26.288Z,100020.38
2022-12-31T11:16:44.261Z,100041.66
2022-12-31T11:21:28.023Z,100031.50
2022-12-31T11:25:43.623Z,100026.44
2022-12-31T11:30:04.026Z,100015.44
2022-12-31T11:34:27.348Z,100014.34
2022-12-31T11:38:37.676Z,99998.53
2022-12-31T11:43:00.700Z,100007.16
2022-12-31T11:47:16.719Z,100024.31
2022-12-31T11:51:35.685Z,100035.50
2022-12-31T11:55:52.462Z,100023.63
2022-12-31T12:00:00.606Z,100026.47
2022-12-31T12:04:03.120Z,100028.47
2022-12-31T12:08:04.790Z,100027.28
2022-12-31T12:12:06.610Z,100025.94
2022-12-31T12:16:08.507Z,100032.38
2022-12-31T12:20:21.305Z,100037.31
2022-12-31T12:24:27.275Z,100018.94
2022-12-31T12:28:44.116Z,100032.41
2022-12-31T12:32:54.971Z,100042.94
2022-12-31T12:36:57.027Z,100043.78
2022-12-31T12:41:01.865Z,100051.22
2022-12-31T12:45:07.717Z,100045.78
2022-12-31T12:49:24.121Z,100047.84
2022-12-31T12:54:07.676Z,100054.50
2022-12-31T12:58:42.947Z,100030.81
2022-12-31T13:03:16.938Z,100044.41
2022-12-31T13:07:41.428Z,100047.94
2022-12-31T13:12:07.939Z,100039.72
2022-12-31T13:16:24.312Z,100050.06
2022-12-31T13:20:44.249Z,100047.69
2022-12-31T13:25:14.800Z,100047.28
2022-12-31T13:29:24.011Z,100044.00
2022-12-31T13:33:40.889Z,100031.97
2022-12-31T13:37:42.612Z,100046.75
2022-12-31T13:41:56.135Z,100054.84
2022-12-31T13:46:23.506Z,100047.38
2022-12-31T13:50:31.504Z,100060.91
2022-12-31T13:54:44.477Z,100084.38
2022-12-31T13:58:53.117Z,100082.94
2022-12-31T14:03:29.855Z,100060.03
2022-12-31T14:07:45.878Z,100058.41
2022-12-31T14:12:15.677Z,100062.69
2022-12-31T14:16:39.419Z,100060.88
2022-12-31T14:20:52.346Z,100078.06
2022-12-31T14:24:56.587Z,100096.34
2022-12-31T14:29:10.959Z,100105.25
2022-12-31T14:33:31.266Z,100118.28
2022-12-31T14:37:53.295Z,100140.94
2022-12-31T14:42:24.469Z,100123.84
2022-12-31T14:46:43.041Z,100139.28
2022-12-31T14:50:46.189Z,100129.66
2022-12-31T14:55:14.917Z,100126.88
2022-12-31T14:59:40.209Z,100143.00
2022-12-31T15:03:46.091Z,100132.53
2022-12-31T15:07:47.809Z,100140.75
2022-12-31T15:12:20.908Z,100134.53
2022-12-31T15:16:42.740Z,100148.97
2022-12-31T15:20:55.564Z,100163.81
2022-12-31T15:24:58.073Z,100179.81
2022-12-31T15:29:07.407Z,100170.78
2022-12-31T15:33:20.163Z,100171.31
2022-12-31T15:37:36.178Z,100171.91
2022-12-31T15:42:10.348Z,100178.34
2022-12-31T15:46:16.994Z,100171.16
2022-12-31T15:50:21.374Z,100169.31
2022-12-31T15:54:45.453Z,100166.47
2022-12-31T15:58:49.627Z,100177.22
2022-12-31T16:02:55.131Z,100174.41
2022-12-31T16:07:03.011Z,100174.09
2022-12-31T16:11:07.420Z,100187.06
2022-12-31T16:15:20.684Z,100189.31
2022-12-31T16:19:42.907Z,100181.66
2022-12-31T16:23:50.490Z,100191.81
2022-12-31T16:27:54.082Z,100182.03
2022-12-31T16:31:55.982Z,100188.38
2022-12-31T16:35:59.809Z,100192.03
2022-12-31T16:40:17.869Z,100193.59
2022-12-31T16:44:30.046Z,100193.22
2022-12-31T16:48:31.582Z,100185.94
2022-12-31T16:52:39.536Z,100199.31
2022-12-31T16:56:42.632Z,100219.19
2022-12-31T17:00:45.135Z,100203.97
2022-12-31T17:04:55.330Z,100209.22
2022-12-31T17:08:59.577Z,100199.66
2022-12-31T17:13:27.784Z,100207.38
2022-12-31T17:17:34.317Z,100208.97
2022-12-31T17:21:35.984Z,100205.31
2022-12-31T17:25:38.144Z,100214.22
2022-12-31T17:29:39.755Z,100205.16
2022-12-31T17:33:41.810Z,100217.03
2022-12-31T17:37:43.421Z,100220.03
2022-12-31T17:41:50.646Z,100237.97
2022-12-31T17:45:54.108Z,100230.66
2022-12-31T17:49:55.580Z,100238.84
2022-12-31T17:54:00.418Z,100245.34
2022-12-31T17:58:04.898Z,100257.63
2022-12-31T18:02:13.116Z,100246.47
2022-12-31T18:06:17.129Z,100259.72
2022-12-31T18:10:21.976Z,100245.31
2022-12-31T18:14:23.508Z,100268.34
2022-12-31T18:18:30.112Z,100271.25
2022-12-31T18:22:31.862Z,100260.38
2022-12-31T18:26:34.445Z,100263.06
2022-12-31T18:30:36.039Z,100257.81
2022-12-31T18:34:38.414Z,100250.00
2022-12-31T18:38:40.731Z,100253.78
2022-12-31T18:42:42.978Z,100242.72
2022-12-31T18:46:44.563Z,100235.41
2022-12-31T18:50:47.476Z,100233.56
2022-12-31T18:54:49.551Z,100235.06
2022-12-31T18:58:51.220Z,100229.69
2022-12-31T19:02:52.853Z,100223.00
2022-12-31T19:06:55.100Z,100225.03
2022-12-31T19:10:56.764Z,100224.97
2022-12-31T19:14:59.592Z,100220.63
2022-12-31T19:19:06.769Z,100214.84
2022-12-31T19:23:17.964Z,100203.00
2022-12-31T19:27:19.772Z,100212.47
2022-12-31T19:31:21.479Z,100195.81
2022-12-31T19:35:24.343Z,100210.00
2022-12-31T19:39:26.047Z,100199.78
2022-12-31T19:43:27.653Z,100210.44
2022-12-31T19:47:29.175Z,100216.44
2022-12-31T19:51:30.557Z,100209.06
2022-12-31T19:55:32.815Z,100206.19
2022-12-31T19:59:34.327Z,100209.44
2022-12-31T20:03:36.110Z,100214.31
2022-12-31T20:07:37.735Z,100212.53
2022-12-31T20:11:39.404Z,100208.28
2022-12-31T20:15:47.499Z,100210.03
2022-12-31T20:19:49.046Z,100203.59
2022-12-31T20:23:52.392Z,100209.94
2022-12-31T20:27:55.365Z,100203.56
2022-12-31T20:31:56.849Z,100208.13
2022-12-31T20:36:02.106Z,100209.31
2022-12-31T20:40:03.806Z,100212.63
2022-12-31T20:44:05.724Z,100193.75
2022-12-31T20:48:07.336Z,100189.56
2022-12-31T20:52:08.921Z,100192.44
2022-12-31T20:56:10.624Z,100196.06
2022-12-31T21:00:14.812Z,100186.25
2022-12-31T21:04:16.587Z,100181.19
2022-12-31T21:08:18.504Z,100183.97
2022-12-31T21:12:38.278Z,100184.00
2022-12-31T21:16:39.894Z,100154.34
2022-12-31T21:20:46.416Z,100144.72
2022-12-31T21:24:48.022Z,100138.50
2022-12-31T21:28:49.555Z,100155.75
2022-12-31T21:32:51.126Z,100148.28
2022-12-31T21:36:52.702Z,100141.63
2022-12-31T21:40:54.274Z,100157.31
2022-12-31T21:44:56.109Z,100147.28
2022-12-31T21:48:59.252Z,100155.78
2022-12-31T21:53:01.282Z,100166.22
2022-12-31T21:57:03.792Z,100168.03
2022-12-31T22:01:25.244Z,100199.59
2022-12-31T22:05:27.217Z,100194.66
2022-12-31T22:09:28.688Z,100197.34
2022-12-31T22:13:30.306Z,100214.13
2022-12-31T22:17:31.721Z,100223.88
2022-12-31T22:21:33.333Z,100230.34
2022-12-31T22:25:36.318Z,100241.22
2022-12-31T22:29:37.911Z,100256.31
2022-12-31T22:33:39.561Z,100258.00
2022-12-31T22:37:59.619Z,100271.00
2022-12-31T22:42:02.918Z,100275.44
2022-12-31T22:46:14.412Z,100282.53
2022-12-31T22:50:16.299Z,100273.78
2022-12-31T22:54:17.955Z,100273.91
2022-12-31T22:58:19.784Z,100286.63
2022-12-31T23:02:21.368Z,100291.25
2022-12-31T23:06:24.037Z,100297.59
2022-12-31T23:10:44.469Z,100304.69
2022-12-31T23:15:04.568Z,100307.66
2022-12-31T23:19:25.497Z,100314.53
2022-12-31T23:23:27.138Z,100303.56
2022-12-31T23:27:28.780Z,100318.09
2022-12-31T23:31:30.511Z,100327.59
2022-12-31T23:35:32.255Z,100311.44
2022-12-31T23:39:33.859Z,100316.00
2022-12-31T23:43:35.359Z,100321.38
2022-12-31T23:47:37.358Z,100301.66
2022-12-31T23:51:40.163Z,100314.75
2022-12-31T23:55:41.955Z,100327.19
2022-12-31T23:59:43.495Z,100329.44
